Pagrindinis puslapis
METAR-TAF:

METAR-TAF

Oro uostai :

Bukareštas-Băneasa, Rumunija

platuma: 44-30N, ilguma: 026-08E, Aukštis: 90 m

Dabartinis oras

Ataskaita buvo paskelbta 27 minutes, ne 09:00 UTC
Vėjas 3 kt iš Vakarų/Pietvakarių, svyruoja nuo Pietų ir Šiaurės Vakarų
Temperatūra 13°C
Drėgmė 58%
Slėgis 1027 hPa
Matomumas 10 km arba daugiau
nėra debesų žemiau 1500 m ir nėra kamuolinių lietaus debesų

METAR: LRBS 270900Z 25003KT 180V320 CAVOK 13/05 Q1027 NOSIG

Laikas: 12:27 (09:27 UTC)

Prognozė

Ataskaita buvo paskelbta 4 valandos ir 27 minutes, ne 05:00 UTC
Prognozė galioja nuo 27 metu 06 UTC su 28 metu 06 UTC
Vėjas 4 kt nuo kintamojo kryptimis
Matomumas 10 km arba daugiau
nėra debesų žemiau 1500 m ir nėra kamuolinių lietaus debesų
Tikimybė 40% :
Laikinai
nuo 28 metu 00 UTC su 28 metu 06 UTC
Matomumas: 3000 m
rūkana

TAF: LRBS 270500Z 2706/2806 VRB04KT CAVOK PROB40 TEMPO 2800/2806 3000 BR

Orai ataskaitas ir orų prognozės (METAR, TAF).

turimą stotys yra geltonos ir raudonos taškus žemėlapyje.

Perkelti pele per norėdami pamatyti stoties vardą.

Tada spustelėkite, norėdami matyti oro stebėjimo ir prognozės.

Norėdami pakeisti žemėlapį: spustelėkite ant žalios mygtukų su juodo kryžiaus žemyn,; žalią mygtuką su brūkšneliu, jei norite nutolinti; arba žalių rodyklių gretimoms žemėlapius.


METAR-TAF: